Terminal Aerodrome Forecast
Issued by NWS

Home | Current Version | Previous Version | Text Only | Print | Product List | Glossary On
Versions: 1 2 3 4 5 6 7 8 9 10 11 12 13 14 15 16 17 18 19 20 21 22 23 24 25 26
000
FTUS43 KGRR 240748 AAA
TAFLAN
TAF AMD
KLAN 240748Z 2408/2506 08012G18KT P6SM -SHRA OVC010
     FM240900 07012KT 5SM -RA BR OVC008
     FM241500 07009KT 2SM -RA BR OVC004
     FM242100 12010KT 1SM -TSRA BR OVC004CB
     FM250000 15009KT 4SM -SHRA BR OVC003=

USA.gov is the U.S. government's official web portal to all federal, state and local government web resources and services.